Time;durP1;ratioP1;P1;durP2;ratioP2;P2;SDS_P1;SDS_P2;PMS_P1;PMS_P2;Temp;Humidity;BMP_temperature;BMP_pressure;BME280_temperature;BME280_humidity;BME280_pressure;Samples;Min_cycle;Max_cycle;Signal;HPM_P1;HPM_P2
2023/12/17 00:01:04;;;;;;;14.30;10.47;;;2.20;99.90;;;;;;5031529;28;20621;-65
2023/12/17 00:03:29;;;;;;;17.00;11.33;;;2.20;99.90;;;;;;5031507;28;20555;-65
2023/12/17 00:05:56;;;;;;;14.03;11.10;;;2.20;99.90;;;;;;5031555;28;20178;-65
2023/12/17 00:08:22;;;;;;;14.37;11.63;;;2.20;99.90;;;;;;5031344;28;20726;-65
2023/12/17 00:10:48;;;;;;;12.53;10.10;;;2.20;99.90;;;;;;5047561;22;20460;-67
2023/12/17 00:13:14;;;;;;;15.53;10.70;;;2.20;99.90;;;;;;5030723;28;20444;-68
2023/12/17 00:15:40;;;;;;;13.80;11.50;;;2.20;99.90;;;;;;5031754;28;20801;-67
2023/12/17 00:18:06;;;;;;;18.27;10.50;;;2.30;99.90;;;;;;5031401;28;20190;-67
2023/12/17 00:20:32;;;;;;;11.90;10.40;;;2.30;99.90;;;;;;5031402;28;20913;-67
2023/12/17 00:22:57;;;;;;;13.17;10.90;;;2.30;99.90;;;;;;5031481;28;20252;-67
2023/12/17 00:25:23;;;;;;;15.60;9.83;;;2.30;99.90;;;;;;5031965;28;20409;-67
2023/12/17 00:27:48;;;;;;;11.80;9.47;;;2.30;99.90;;;;;;5034870;28;20166;-67
2023/12/17 00:30:14;;;;;;;13.10;9.80;;;2.20;99.90;;;;;;5034963;28;20170;-67
2023/12/17 00:32:40;;;;;;;14.00;8.50;;;2.20;99.90;;;;;;5035164;28;20632;-68
2023/12/17 00:35:06;;;;;;;15.00;9.67;;;2.20;99.90;;;;;;5034990;28;20174;-67
2023/12/17 00:37:31;;;;;;;13.77;9.80;;;2.10;99.90;;;;;;5034698;28;20167;-67
2023/12/17 00:39:56;;;;;;;11.50;9.40;;;2.10;99.90;;;;;;5034974;28;20181;-67
2023/12/17 00:42:22;;;;;;;10.90;9.63;;;2.10;99.90;;;;;;5034706;28;20214;-67
2023/12/17 00:44:47;;;;;;;12.30;9.97;;;2.10;99.90;;;;;;5034830;28;20185;-67
2023/12/17 00:47:13;;;;;;;11.30;9.77;;;2.10;99.90;;;;;;5034668;28;20669;-67
2023/12/17 00:49:38;;;;;;;16.47;10.27;;;2.10;99.90;;;;;;5034948;28;20252;-67
2023/12/17 00:52:04;;;;;;;14.40;11.67;;;2.10;99.90;;;;;;5034674;28;20316;-67
2023/12/17 00:54:30;;;;;;;14.67;10.93;;;2.10;99.90;;;;;;5034615;28;20174;-67
2023/12/17 00:56:55;;;;;;;19.77;13.00;;;2.20;99.90;;;;;;5034317;28;20182;-67
2023/12/17 00:59:21;;;;;;;19.10;14.73;;;2.20;99.90;;;;;;5034444;28;20304;-67
2023/12/17 01:01:46;;;;;;;24.47;17.50;;;2.20;99.90;;;;;;5034355;28;20206;-67
2023/12/17 01:04:12;;;;;;;25.00;18.27;;;2.10;99.90;;;;;;5034455;28;20196;-66
2023/12/17 01:06:37;;;;;;;21.80;12.70;;;2.00;99.90;;;;;;5034134;28;20586;-66
2023/12/17 01:09:03;;;;;;;21.10;17.07;;;2.00;99.90;;;;;;5034445;28;20175;-66
2023/12/17 01:11:28;;;;;;;28.53;21.17;;;2.10;99.90;;;;;;5034100;28;20268;-66
2023/12/17 01:13:54;;;;;;;21.83;17.83;;;2.10;99.90;;;;;;5034281;28;20548;-66
2023/12/17 01:16:19;;;;;;;17.67;15.03;;;2.00;99.90;;;;;;5034096;28;20796;-66
2023/12/17 01:18:45;;;;;;;17.77;12.70;;;2.00;99.90;;;;;;5034029;28;20170;-66
2023/12/17 01:21:10;;;;;;;18.70;12.37;;;2.00;99.90;;;;;;5034030;28;20206;-66
2023/12/17 01:23:37;;;;;;;17.70;13.40;;;2.00;99.90;;;;;;5034210;28;20570;-66
2023/12/17 01:26:03;;;;;;;20.03;12.37;;;2.00;99.90;;;;;;5034069;28;20304;-66
2023/12/17 01:28:28;;;;;;;16.57;12.33;;;2.00;99.90;;;;;;5033774;28;20496;-66
2023/12/17 01:30:54;;;;;;;15.03;11.70;;;1.90;99.90;;;;;;5033963;28;20902;-66
2023/12/17 01:33:19;;;;;;;14.40;11.30;;;1.90;99.90;;;;;;5034151;28;20182;-66
2023/12/17 01:35:45;;;;;;;17.20;10.43;;;1.90;99.90;;;;;;5033884;28;20404;-67
2023/12/17 01:38:11;;;;;;;11.70;10.50;;;1.90;99.90;;;;;;5032829;28;20236;-67
2023/12/17 01:40:39;;;;;;;12.93;10.93;;;2.00;99.90;;;;;;5033600;28;20409;-67
2023/12/17 01:43:08;;;;;;;13.00;10.93;;;2.00;99.90;;;;;;5033722;28;20675;-66
2023/12/17 01:45:34;;;;;;;16.83;11.00;;;2.00;99.90;;;;;;5033693;28;20491;-66
2023/12/17 01:48:00;;;;;;;11.23;8.97;;;2.00;99.90;;;;;;5033357;28;20441;-66
2023/12/17 01:50:27;;;;;;;11.57;10.37;;;1.90;99.90;;;;;;5033780;28;20178;-67
2023/12/17 01:52:53;;;;;;;16.07;10.30;;;2.00;99.90;;;;;;5033548;28;20437;-66
2023/12/17 01:55:19;;;;;;;14.33;12.67;;;1.90;99.90;;;;;;5033460;28;20479;-66
2023/12/17 01:57:45;;;;;;;11.57;10.37;;;1.90;99.90;;;;;;5033201;28;20420;-66
2023/12/17 02:00:11;;;;;;;15.43;11.23;;;1.90;99.90;;;;;;5033534;28;20174;-66
2023/12/17 02:02:37;;;;;;;11.93;10.60;;;2.00;99.90;;;;;;5033463;28;20496;-66
2023/12/17 02:05:05;;;;;;;14.23;10.47;;;2.00;99.90;;;;;;5033419;28;20949;-67
2023/12/17 02:07:34;;;;;;;17.70;12.30;;;2.00;99.90;;;;;;5033008;28;20173;-67
2023/12/17 02:09:59;;;;;;;16.27;11.07;;;2.00;99.90;;;;;;5033227;28;20413;-67
2023/12/17 02:12:26;;;;;;;13.33;11.20;;;2.00;99.90;;;;;;5033268;28;20886;-67
2023/12/17 02:14:52;;;;;;;19.53;11.67;;;2.00;99.90;;;;;;5033136;28;20173;-67
2023/12/17 02:17:31;;;;;;;17.23;12.13;;;1.90;99.90;;;;;;5031555;28;20421;-67
2023/12/17 02:19:57;;;;;;;16.93;11.73;;;1.90;99.90;;;;;;5033101;28;20622;-67
2023/12/17 02:22:23;;;;;;;15.00;11.90;;;1.80;99.90;;;;;;5032850;28;20453;-67
2023/12/17 02:24:51;;;;;;;15.23;11.30;;;1.80;99.90;;;;;;5032981;28;20174;-67
2023/12/17 02:27:22;;;;;;;17.07;10.67;;;1.80;99.90;;;;;;5032548;28;20409;-67
2023/12/17 02:29:48;;;;;;;14.17;11.60;;;1.80;99.90;;;;;;5032861;28;20988;-66
2023/12/17 02:32:14;;;;;;;16.23;11.63;;;1.70;99.90;;;;;;5032849;28;20819;-66
2023/12/17 02:34:40;;;;;;;16.07;11.70;;;1.70;99.90;;;;;;5032774;28;20419;-66
2023/12/17 02:37:05;;;;;;;16.37;12.80;;;1.60;99.90;;;;;;5032404;28;20417;-67
2023/12/17 02:39:31;;;;;;;15.07;11.00;;;1.50;99.90;;;;;;5032885;28;20435;-67
2023/12/17 02:41:58;;;;;;;15.47;11.93;;;1.50;99.90;;;;;;5032755;28;20732;-66
2023/12/17 02:44:23;;;;;;;14.63;12.40;;;1.40;99.90;;;;;;5032710;28;20644;-66
2023/12/17 02:46:49;;;;;;;19.37;12.93;;;1.40;99.90;;;;;;5032363;28;20506;-66
2023/12/17 02:49:14;;;;;;;14.80;11.07;;;1.40;99.90;;;;;;5032569;28;20178;-66
2023/12/17 02:51:40;;;;;;;18.87;12.20;;;1.50;99.90;;;;;;5032459;28;20200;-66
2023/12/17 02:54:05;;;;;;;16.43;12.13;;;1.50;99.90;;;;;;5032622;28;20274;-66
2023/12/17 02:56:38;;;;;;;16.70;12.17;;;1.50;99.90;;;;;;5032397;28;20181;-67
2023/12/17 02:59:05;;;;;;;15.57;12.73;;;1.50;99.90;;;;;;5032576;28;20659;-66
2023/12/17 03:01:30;;;;;;;14.53;12.23;;;1.50;99.90;;;;;;5032235;28;20495;-66
2023/12/17 03:03:56;;;;;;;18.20;11.60;;;1.30;99.90;;;;;;5032368;28;20420;-66
2023/12/17 03:06:21;;;;;;;14.77;11.50;;;1.20;99.90;;;;;;5032129;28;20178;-66
2023/12/17 03:08:47;;;;;;;15.77;11.33;;;1.30;99.90;;;;;;5032249;28;20261;-67
2023/12/17 03:11:12;;;;;;;18.23;12.60;;;1.30;99.90;;;;;;5032166;28;20623;-66
2023/12/17 03:13:38;;;;;;;13.90;12.50;;;1.30;99.90;;;;;;5032349;28;20173;-66
2023/12/17 03:16:06;;;;;;;16.63;13.10;;;1.30;99.90;;;;;;5032081;28;20185;-67
2023/12/17 03:18:32;;;;;;;17.93;12.87;;;1.40;99.90;;;;;;5032073;28;20210;-65
2023/12/17 03:20:57;;;;;;;13.50;12.10;;;1.40;99.90;;;;;;5031844;28;20506;-68
2023/12/17 03:23:23;;;;;;;12.93;11.67;;;1.40;99.90;;;;;;5032324;28;20162;-68
2023/12/17 03:25:49;;;;;;;13.60;11.57;;;1.50;99.90;;;;;;5031790;28;20167;-66
2023/12/17 03:28:14;;;;;;;17.13;11.80;;;1.40;99.90;;;;;;5031854;28;20413;-65
2023/12/17 03:30:40;;;;;;;14.97;12.80;;;1.40;99.90;;;;;;5032182;28;20181;-68
2023/12/17 03:33:05;;;;;;;17.00;11.97;;;1.40;99.90;;;;;;5032077;28;20719;-68
2023/12/17 03:35:31;;;;;;;13.53;11.40;;;1.40;99.90;;;;;;5031935;28;20173;-67
2023/12/17 03:37:56;;;;;;;14.47;11.03;;;1.40;99.90;;;;;;5031740;28;20579;-66
2023/12/17 03:40:22;;;;;;;13.53;11.30;;;1.40;99.90;;;;;;5032383;28;20269;-66
2023/12/17 03:42:47;;;;;;;12.93;11.40;;;1.30;99.90;;;;;;5032001;28;20210;-66
2023/12/17 03:45:13;;;;;;;14.00;11.63;;;1.30;99.90;;;;;;5031944;28;20628;-66
2023/12/17 03:47:45;;;;;;;12.43;11.23;;;1.30;99.90;;;;;;5031630;28;20171;-66
2023/12/17 03:50:11;;;;;;;20.30;11.63;;;1.30;99.90;;;;;;5031976;28;20178;-66
2023/12/17 03:52:36;;;;;;;12.93;11.33;;;1.30;99.90;;;;;;5031944;28;20444;-66
2023/12/17 03:55:02;;;;;;;18.93;11.57;;;1.30;99.90;;;;;;5031937;28;20375;-68
2023/12/17 03:57:27;;;;;;;15.47;10.60;;;1.30;99.90;;;;;;5031579;28;20183;-67
2023/12/17 03:59:53;;;;;;;14.57;10.80;;;1.30;99.90;;;;;;5031919;28;20217;-69
2023/12/17 04:02:18;;;;;;;14.80;11.50;;;1.40;99.90;;;;;;5035754;28;20759;-68
2023/12/17 04:04:44;;;;;;;14.50;11.67;;;1.30;99.90;;;;;;5036421;28;20753;-68
2023/12/17 04:07:09;;;;;;;16.53;10.57;;;1.40;99.90;;;;;;5035570;28;20212;-67
2023/12/17 04:09:34;;;;;;;12.10;10.90;;;1.40;99.90;;;;;;5035741;28;20196;-68
2023/12/17 04:12:00;;;;;;;14.30;11.70;;;1.40;99.90;;;;;;5035360;28;20222;-67
2023/12/17 04:14:25;;;;;;;14.97;12.97;;;1.50;99.90;;;;;;5035350;28;20194;-68
2023/12/17 04:16:51;;;;;;;14.60;10.80;;;1.50;99.90;;;;;;5035107;28;20182;-68
2023/12/17 04:19:16;;;;;;;12.10;10.73;;;1.50;99.90;;;;;;5035503;28;20197;-68
2023/12/17 04:21:42;;;;;;;12.17;10.90;;;1.40;99.90;;;;;;5035280;28;20263;-67
2023/12/17 04:24:07;;;;;;;16.10;11.97;;;1.40;99.90;;;;;;5035267;28;20229;-67
2023/12/17 04:26:34;;;;;;;16.03;12.80;;;1.40;99.90;;;;;;5036116;28;20178;-65
2023/12/17 04:28:59;;;;;;;13.70;12.30;;;1.40;99.90;;;;;;5035626;28;20181;-68
2023/12/17 04:31:25;;;;;;;14.17;12.67;;;1.40;99.90;;;;;;5035154;28;20445;-66
2023/12/17 04:33:50;;;;;;;14.37;10.70;;;1.50;99.90;;;;;;5035173;28;20178;-66
2023/12/17 04:36:16;;;;;;;14.53;12.60;;;1.50;99.90;;;;;;5034903;28;20535;-66
2023/12/17 04:38:41;;;;;;;12.30;11.00;;;1.50;99.90;;;;;;5035128;28;20186;-66
2023/12/17 04:41:07;;;;;;;13.03;11.67;;;1.40;99.90;;;;;;5034743;28;20221;-68
2023/12/17 04:43:33;;;;;;;16.40;12.03;;;1.40;99.90;;;;;;5034861;28;20178;-68
2023/12/17 04:45:58;;;;;;;16.43;12.00;;;1.30;99.90;;;;;;5034766;28;20181;-68
2023/12/17 04:48:24;;;;;;;17.83;12.10;;;1.30;99.90;;;;;;5034600;28;20807;-68
2023/12/17 04:50:49;;;;;;;16.10;12.93;;;1.30;99.90;;;;;;5034786;28;20232;-68
2023/12/17 04:53:15;;;;;;;18.00;12.10;;;1.30;99.90;;;;;;5034750;28;20186;-67
2023/12/17 04:55:40;;;;;;;24.73;14.73;;;1.20;99.90;;;;;;5034600;28;20245;-68
2023/12/17 04:58:06;;;;;;;20.40;13.60;;;1.20;99.90;;;;;;5033277;28;20515;-68
2023/12/17 05:00:32;;;;;;;17.80;12.30;;;1.10;99.90;;;;;;5034549;28;20223;-68
2023/12/17 05:02:57;;;;;;;14.37;12.33;;;1.10;99.90;;;;;;5034597;28;20186;-68
2023/12/17 05:05:23;;;;;;;17.77;13.20;;;1.20;99.90;;;;;;5034836;28;20170;-68
2023/12/17 05:07:48;;;;;;;15.83;13.57;;;1.20;99.90;;;;;;5034168;28;20628;-68
2023/12/17 05:10:14;;;;;;;15.87;12.43;;;1.30;99.90;;;;;;5034498;28;20421;-68
2023/12/17 05:12:39;;;;;;;17.67;13.03;;;1.30;99.90;;;;;;5033107;28;20217;-68
2023/12/17 05:15:05;;;;;;;17.30;12.03;;;1.30;99.90;;;;;;5034204;28;20186;-68
2023/12/17 05:17:31;;;;;;;19.00;11.90;;;1.30;99.90;;;;;;5034011;28;20177;-68
2023/12/17 05:19:56;;;;;;;19.10;12.87;;;1.30;99.90;;;;;;5034217;28;21168;-68
2023/12/17 05:22:22;;;;;;;18.53;14.57;;;1.30;99.90;;;;;;5034025;28;20233;-68
2023/12/17 05:24:48;;;;;;;17.27;12.20;;;1.30;99.90;;;;;;5033978;28;20178;-68
2023/12/17 05:27:14;;;;;;;16.00;13.30;;;1.30;99.90;;;;;;5033890;28;20170;-68
2023/12/17 05:29:39;;;;;;;16.33;12.97;;;1.30;99.90;;;;;;5034230;28;20512;-68
2023/12/17 05:32:05;;;;;;;17.17;12.57;;;1.30;99.90;;;;;;5033948;28;20205;-68
2023/12/17 05:34:31;;;;;;;18.53;13.23;;;1.30;99.90;;;;;;5034242;28;20174;-69
2023/12/17 05:36:56;;;;;;;16.60;12.90;;;1.30;99.90;;;;;;5033705;28;20228;-68
2023/12/17 05:39:22;;;;;;;17.10;12.10;;;1.30;99.90;;;;;;5033991;28;20174;-68
2023/12/17 05:41:47;;;;;;;18.50;15.90;;;1.30;99.90;;;;;;5033598;28;20206;-68
2023/12/17 05:44:13;;;;;;;15.60;13.77;;;1.40;99.90;;;;;;5033689;28;20166;-68
2023/12/17 05:46:38;;;;;;;18.77;13.43;;;1.40;99.90;;;;;;5033482;28;20174;-68
2023/12/17 05:49:04;;;;;;;15.33;12.40;;;1.40;99.90;;;;;;5033813;28;20163;-68
2023/12/17 05:51:29;;;;;;;16.20;13.17;;;1.40;99.90;;;;;;5033853;28;20201;-68
2023/12/17 05:53:54;;;;;;;16.47;14.17;;;1.40;99.90;;;;;;5033604;28;20662;-69
2023/12/17 05:56:20;;;;;;;16.13;13.30;;;1.40;99.90;;;;;;5033497;28;20683;-68
2023/12/17 05:58:45;;;;;;;18.17;14.70;;;1.50;99.90;;;;;;5033475;28;20210;-68
2023/12/17 06:01:11;;;;;;;17.47;13.67;;;1.50;99.90;;;;;;5033302;28;20695;-69
2023/12/17 06:03:37;;;;;;;16.87;13.47;;;1.60;99.90;;;;;;5033392;28;20237;-68
2023/12/17 06:06:03;;;;;;;13.93;12.47;;;1.60;99.90;;;;;;5033369;28;20192;-68
2023/12/17 06:08:28;;;;;;;14.93;12.50;;;1.60;99.90;;;;;;5033223;28;20202;-67
2023/12/17 06:10:54;;;;;;;19.03;12.90;;;1.60;99.90;;;;;;5033166;28;20518;-67
2023/12/17 06:13:19;;;;;;;16.80;12.70;;;1.60;99.90;;;;;;5033825;28;20162;-67
2023/12/17 06:15:45;;;;;;;13.37;11.60;;;1.50;99.90;;;;;;5033262;28;20174;-67
2023/12/17 06:18:10;;;;;;;16.40;11.97;;;1.60;99.90;;;;;;5032950;28;20556;-67
2023/12/17 06:20:36;;;;;;;13.77;12.37;;;1.60;99.90;;;;;;5032992;28;20182;-67
2023/12/17 06:23:01;;;;;;;19.90;14.57;;;1.60;99.90;;;;;;5032700;28;20166;-67
2023/12/17 06:25:27;;;;;;;14.73;11.77;;;1.50;99.90;;;;;;5033060;28;20193;-67
2023/12/17 06:27:52;;;;;;;13.07;11.73;;;1.50;99.90;;;;;;5032845;28;20229;-67
2023/12/17 06:30:18;;;;;;;14.20;12.70;;;1.50;99.90;;;;;;5033025;28;20170;-67
2023/12/17 06:32:45;;;;;;;11.77;10.57;;;1.50;99.90;;;;;;5032879;28;20186;-67
2023/12/17 06:35:10;;;;;;;15.27;10.83;;;1.50;99.90;;;;;;5032899;28;20168;-68
2023/12/17 06:37:36;;;;;;;17.10;12.13;;;1.40;99.90;;;;;;5032494;28;20914;-67
2023/12/17 06:40:01;;;;;;;27.57;20.70;;;1.50;99.90;;;;;;5032836;28;20178;-67
2023/12/17 06:42:27;;;;;;;16.57;14.20;;;1.40;99.90;;;;;;5032572;28;20741;-67
2023/12/17 06:44:52;;;;;;;12.40;11.10;;;1.40;99.90;;;;;;5032612;28;20534;-67
2023/12/17 06:47:18;;;;;;;15.23;12.80;;;1.40;99.90;;;;;;5032263;28;20174;-67
2023/12/17 06:49:44;;;;;;;14.63;11.33;;;1.40;99.90;;;;;;5032559;28;20166;-67
2023/12/17 06:52:10;;;;;;;14.93;11.43;;;1.40;99.90;;;;;;5031159;28;20437;-67
2023/12/17 06:54:36;;;;;;;14.70;11.20;;;1.40;99.90;;;;;;5032731;28;20417;-68
2023/12/17 06:57:01;;;;;;;16.13;10.97;;;1.50;99.90;;;;;;5032150;28;20178;-67
2023/12/17 06:59:27;;;;;;;14.07;11.60;;;1.40;99.90;;;;;;5032487;28;20233;-67
2023/12/17 07:01:52;;;;;;;13.70;11.60;;;1.40;99.90;;;;;;5032230;28;20209;-67
2023/12/17 07:04:18;;;;;;;16.63;11.33;;;1.40;99.90;;;;;;5032573;28;20659;-67
2023/12/17 07:06:43;;;;;;;15.17;10.90;;;1.40;99.90;;;;;;5031936;28;20167;-67
2023/12/17 07:09:09;;;;;;;15.30;13.03;;;1.40;99.90;;;;;;5032313;28;20627;-67
2023/12/17 07:11:34;;;;;;;16.57;13.93;;;1.40;99.90;;;;;;5032041;28;20584;-67
2023/12/17 07:14:00;;;;;;;12.37;11.00;;;1.40;99.90;;;;;;5032179;28;20177;-67
2023/12/17 07:16:28;;;;;;;12.10;10.30;;;1.50;99.90;;;;;;5031838;28;20182;-67
2023/12/17 07:18:54;;;;;;;12.93;11.63;;;1.50;99.90;;;;;;5032253;28;20833;-67
2023/12/17 07:21:19;;;;;;;15.93;12.87;;;1.50;99.90;;;;;;5031985;28;20456;-67
2023/12/17 07:23:46;;;;;;;19.40;13.00;;;1.60;99.90;;;;;;5032291;28;20244;-67
2023/12/17 07:26:11;;;;;;;16.23;12.60;;;1.60;99.90;;;;;;5032005;28;20174;-67
2023/12/17 07:28:37;;;;;;;16.27;11.93;;;1.60;99.90;;;;;;5032078;28;20423;-67
2023/12/17 07:31:03;;;;;;;15.10;12.10;;;1.70;99.90;;;;;;5031831;28;20186;-67
2023/12/17 07:33:29;;;;;;;12.73;11.43;;;1.80;99.90;;;;;;5032121;28;20170;-67
2023/12/17 07:35:54;;;;;;;13.97;12.00;;;1.80;99.90;;;;;;5033852;28;20931;-67
2023/12/17 07:38:20;;;;;;;16.10;12.67;;;1.80;99.90;;;;;;5036430;28;20170;-67
2023/12/17 07:40:45;;;;;;;16.50;12.87;;;1.90;99.90;;;;;;5036044;28;20224;-67
2023/12/17 07:43:11;;;;;;;12.20;10.30;;;1.90;99.90;;;;;;5036309;28;20171;-67
2023/12/17 07:45:37;;;;;;;13.40;11.80;;;2.00;99.90;;;;;;5036088;28;20171;-67
2023/12/17 07:48:03;;;;;;;13.80;11.23;;;2.20;99.90;;;;;;5036409;28;20178;-67
2023/12/17 07:50:29;;;;;;;16.97;12.80;;;2.60;99.90;;;;;;5036605;28;20231;-67
2023/12/17 07:52:55;;;;;;;12.40;10.50;;;3.20;99.90;;;;;;5035999;28;20449;-67
2023/12/17 07:55:20;;;;;;;11.80;10.27;;;3.80;99.90;;;;;;5036110;28;20178;-67
2023/12/17 07:57:46;;;;;;;11.73;9.33;;;4.40;99.90;;;;;;5035953;28;20959;-68
2023/12/17 08:00:12;;;;;;;12.90;11.00;;;5.10;99.90;;;;;;5036377;28;20265;-67
2023/12/17 08:02:38;;;;;;;9.60;8.57;;;5.70;99.90;;;;;;5035969;28;20264;-67
2023/12/17 08:05:05;;;;;;;9.30;8.50;;;5.90;99.90;;;;;;5036212;28;20189;-67
2023/12/17 08:07:31;;;;;;;8.90;8.13;;;6.10;99.90;;;;;;5035924;28;20417;-67
2023/12/17 08:09:57;;;;;;;11.17;9.00;;;6.30;99.90;;;;;;5036092;28;20424;-67
2023/12/17 08:12:22;;;;;;;10.07;8.20;;;6.60;99.90;;;;;;5035700;28;20484;-67
2023/12/17 08:14:48;;;;;;;9.30;8.30;;;6.90;99.90;;;;;;5035728;28;20249;-67
2023/12/17 08:17:13;;;;;;;8.30;7.50;;;7.00;99.90;;;;;;5035546;28;20174;-67
2023/12/17 08:19:39;;;;;;;8.90;8.10;;;7.90;99.90;;;;;;5035803;28;20258;-67
2023/12/17 08:22:04;;;;;;;7.30;6.60;;;8.60;99.90;;;;;;5035522;28;20659;-67
2023/12/17 08:24:30;;;;;;;8.60;7.53;;;9.30;99.90;;;;;;5035805;28;20189;-67
2023/12/17 08:26:57;;;;;;;8.60;7.67;;;9.90;99.90;;;;;;5035505;28;20636;-67
2023/12/17 08:29:24;;;;;;;8.27;7.47;;;10.20;99.90;;;;;;5035452;28;20257;-67
2023/12/17 08:31:49;;;;;;;8.37;7.60;;;10.50;99.90;;;;;;5035654;28;20848;-66
2023/12/17 08:34:15;;;;;;;8.00;7.40;;;11.70;99.90;;;;;;5035371;28;20500;-67
2023/12/17 08:36:41;;;;;;;7.87;7.17;;;12.80;99.90;;;;;;5034969;28;20175;-67
2023/12/17 08:39:07;;;;;;;8.97;8.17;;;12.80;99.90;;;;;;5035064;28;20162;-67
2023/12/17 08:41:33;;;;;;;8.67;7.83;;;13.50;99.90;;;;;;5034774;28;20205;-67
2023/12/17 08:44:00;;;;;;;8.53;7.83;;;14.20;99.90;;;;;;5035415;28;20417;-68
2023/12/17 08:46:25;;;;;;;7.93;7.33;;;14.30;99.00;;;;;;5034382;28;20181;-68
2023/12/17 08:48:51;;;;;;;9.07;8.17;;;14.20;98.00;;;;;;5034920;28;20420;-67
2023/12/17 08:51:16;;;;;;;8.80;8.10;;;14.30;99.90;;;;;;5034643;28;20198;-67
2023/12/17 08:53:42;;;;;;;8.90;8.00;;;14.20;97.30;;;;;;5034770;28;20236;-67
2023/12/17 08:56:08;;;;;;;8.53;7.80;;;14.80;94.90;;;;;;5034637;28;20217;-67
2023/12/17 08:58:33;;;;;;;8.93;8.13;;;14.40;95.30;;;;;;5034732;28;20180;-68
2023/12/17 09:00:59;;;;;;;12.70;11.60;;;13.50;98.00;;;;;;5034596;28;20540;-67
2023/12/17 09:03:25;;;;;;;8.77;8.10;;;12.90;99.70;;;;;;5034897;28;20258;-67
2023/12/17 09:05:50;;;;;;;9.30;8.50;;;13.20;99.90;;;;;;5034698;28;20225;-67
2023/12/17 09:08:16;;;;;;;8.70;7.90;;;14.80;96.70;;;;;;5034169;28;20170;-67
2023/12/17 09:10:41;;;;;;;9.10;8.30;;;16.00;91.20;;;;;;5034276;28;20167;-67
2023/12/17 09:13:09;;;;;;;9.00;8.33;;;16.30;90.60;;;;;;5034236;28;20277;-67
2023/12/17 09:15:38;;;;;;;8.80;8.07;;;16.20;84.30;;;;;;5034422;28;20178;-67
2023/12/17 09:18:05;;;;;;;9.00;8.30;;;15.70;86.70;;;;;;5034069;28;20425;-67
2023/12/17 09:20:31;;;;;;;10.30;9.17;;;16.30;85.20;;;;;;5034128;28;20424;-67
2023/12/17 09:22:57;;;;;;;12.17;11.13;;;16.80;82.40;;;;;;5033938;28;21056;-67
2023/12/17 09:25:23;;;;;;;8.40;7.80;;;17.80;77.40;;;;;;5034103;28;20421;-68
2023/12/17 09:27:51;;;;;;;9.20;8.50;;;18.30;72.10;;;;;;5033665;28;20428;-67
2023/12/17 09:30:20;;;;;;;8.70;8.00;;;18.00;70.80;;;;;;5034012;28;20432;-67
2023/12/17 09:32:45;;;;;;;8.20;7.60;;;18.30;69.70;;;;;;5033786;28;20961;-67
2023/12/17 09:35:11;;;;;;;8.07;7.27;;;18.00;68.50;;;;;;5033957;28;20417;-68
2023/12/17 09:37:38;;;;;;;8.63;8.00;;;18.20;65.50;;;;;;5033551;28;20181;-67
2023/12/17 09:40:07;;;;;;;9.03;7.93;;;18.00;65.90;;;;;;5033737;28;20459;-67
2023/12/17 09:42:33;;;;;;;8.60;7.90;;;18.60;66.30;;;;;;5033772;28;20514;-67
2023/12/17 09:44:59;;;;;;;9.73;9.03;;;19.60;61.00;;;;;;5033801;28;20510;-67
2023/12/17 09:47:25;;;;;;;8.73;8.13;;;19.70;59.50;;;;;;5033353;28;20170;-68
2023/12/17 09:49:50;;;;;;;7.63;7.13;;;19.60;59.30;;;;;;5033565;28;20166;-67
2023/12/17 09:52:19;;;;;;;8.27;7.57;;;19.50;56.80;;;;;;5033520;28;20265;-67
2023/12/17 09:54:48;;;;;;;8.70;8.00;;;19.20;58.80;;;;;;5033519;28;20181;-67
2023/12/17 09:57:16;;;;;;;8.10;7.60;;;19.70;58.10;;;;;;5033212;28;20459;-67
2023/12/17 09:59:42;;;;;;;9.23;8.53;;;20.70;55.60;;;;;;5047965;28;20432;-67
2023/12/17 10:02:15;;;;;;;8.60;8.00;;;21.80;54.20;;;;;;5033320;28;20969;-67
2023/12/17 10:04:40;;;;;;;7.80;7.20;;;23.00;49.80;;;;;;5033369;28;20201;-67
2023/12/17 10:07:06;;;;;;;8.57;7.87;;;22.50;48.80;;;;;;5032858;28;20416;-67
2023/12/17 10:09:35;;;;;;;8.40;7.70;;;22.80;47.70;;;;;;5033201;28;20179;-67
2023/12/17 10:12:01;;;;;;;8.60;7.80;;;23.40;46.00;;;;;;5033262;28;20452;-67
2023/12/17 10:14:30;;;;;;;10.87;8.47;;;23.40;44.50;;;;;;5033085;28;20425;-67
2023/12/17 10:16:58;;;;;;;8.20;7.50;;;23.30;44.40;;;;;;5032778;28;20409;-67
2023/12/17 10:19:24;;;;;;;8.80;8.20;;;23.00;44.80;;;;;;5033348;28;20409;-67
2023/12/17 10:21:50;;;;;;;8.77;8.17;;;23.60;43.30;;;;;;5032745;28;20976;-67
2023/12/17 10:24:17;;;;;;;8.67;8.00;;;22.30;42.70;;;;;;5032965;28;20658;-67
2023/12/17 10:26:47;;;;;;;7.90;7.40;;;21.70;44.60;;;;;;5032643;28;20212;-67
2023/12/17 10:29:14;;;;;;;8.30;7.70;;;22.50;44.10;;;;;;5032814;28;20413;-67
2023/12/17 10:31:41;;;;;;;9.40;8.70;;;23.30;43.50;;;;;;5032646;28;20493;-67
2023/12/17 10:34:18;;;;;;;15.23;13.77;;;23.60;43.50;;;;;;5032761;28;20445;-68
2023/12/17 10:36:48;;;;;;;9.37;8.77;;;23.50;41.80;;;;;;5032485;28;20424;-67
2023/12/17 10:39:14;;;;;;;9.30;8.40;;;23.80;41.50;;;;;;5032674;28;20421;-67
2023/12/17 10:41:41;;;;;;;8.70;8.00;;;23.50;40.60;;;;;;5032565;28;20459;-67
2023/12/17 10:44:13;;;;;;;8.60;8.00;;;23.70;41.60;;;;;;5032600;28;20423;-68
2023/12/17 10:46:43;;;;;;;8.37;7.57;;;23.70;40.70;;;;;;5032372;28;20413;-67
2023/12/17 10:49:10;;;;;;;8.80;8.20;;;24.10;40.30;;;;;;5032533;28;20421;-67
2023/12/17 10:51:40;;;;;;;8.13;7.50;;;23.40;39.40;;;;;;5032455;28;20439;-67
2023/12/17 10:54:06;;;;;;;8.90;8.13;;;22.10;42.50;;;;;;5032490;28;20508;-67
2023/12/17 10:56:36;;;;;;;7.63;7.03;;;22.60;41.80;;;;;;5032267;28;20794;-67
2023/12/17 10:59:05;;;;;;;9.37;8.57;;;23.00;42.40;;;;;;5047687;28;20474;-67
2023/12/17 11:01:32;;;;;;;9.73;8.93;;;23.30;41.00;;;;;;5032120;28;20855;-67
2023/12/17 11:03:58;;;;;;;8.23;7.53;;;23.40;41.30;;;;;;5032291;28;20435;-67
2023/12/17 11:06:24;;;;;;;8.53;7.43;;;23.20;41.60;;;;;;5032092;28;20413;-68
2023/12/17 11:08:49;;;;;;;12.50;7.40;;;22.70;41.40;;;;;;5032277;28;20437;-67
2023/12/17 11:11:15;;;;;;;8.53;7.93;;;23.40;41.00;;;;;;5032131;28;20210;-66
2023/12/17 11:13:41;;;;;;;9.60;8.70;;;21.20;42.70;;;;;;5032351;28;20181;-67
2023/12/17 11:16:24;;;;;;;8.60;8.00;;;20.90;43.90;;;;;;5032194;28;20178;-67
2023/12/17 11:18:53;;;;;;;7.73;7.13;;;20.40;44.40;;;;;;5032392;28;20162;-67
2023/12/17 11:21:18;;;;;;;7.13;6.47;;;20.00;45.50;;;;;;5032420;28;20456;-67
2023/12/17 11:23:48;;;;;;;8.63;7.93;;;18.80;47.40;;;;;;5032574;28;20425;-67
2023/12/17 11:26:18;;;;;;;8.10;7.50;;;19.20;48.10;;;;;;5032341;28;20445;-67
2023/12/17 11:28:48;;;;;;;7.07;6.57;;;20.40;47.70;;;;;;5032253;28;20449;-67
2023/12/17 11:31:14;;;;;;;8.13;7.47;;;20.40;47.20;;;;;;5032295;28;20878;-67
2023/12/17 11:33:40;;;;;;;8.20;7.50;;;21.60;45.40;;;;;;5032490;28;20421;-67
2023/12/17 11:36:08;;;;;;;8.27;7.67;;;22.10;45.10;;;;;;5032278;28;21118;-67
2023/12/17 11:38:35;;;;;;;8.20;7.50;;;22.40;44.30;;;;;;5032000;28;20991;-67
2023/12/17 11:41:01;;;;;;;9.13;8.40;;;23.20;43.00;;;;;;5032310;28;20452;-67
2023/12/17 11:43:26;;;;;;;8.20;7.63;;;24.00;41.10;;;;;;5032501;28;20440;-67
2023/12/17 11:45:54;;;;;;;7.97;7.33;;;24.20;40.30;;;;;;5032089;28;20654;-67
2023/12/17 11:48:20;;;;;;;7.80;7.20;;;23.00;40.40;;;;;;5032220;28;20249;-66
2023/12/17 11:50:49;;;;;;;7.70;7.20;;;21.70;41.70;;;;;;5031753;28;20409;-67
2023/12/17 11:53:16;;;;;;;7.57;6.97;;;20.40;45.10;;;;;;5032103;28;20432;-67
2023/12/17 11:55:43;;;;;;;8.17;7.57;;;21.70;44.30;;;;;;5031864;28;20419;-67
2023/12/17 11:58:09;;;;;;;7.67;7.07;;;22.40;42.60;;;;;;5031645;28;20930;-66
2023/12/17 12:00:34;;;;;;;6.63;6.13;;;23.60;40.90;;;;;;5032185;28;20444;-67
2023/12/17 12:03:00;;;;;;;7.97;7.40;;;24.50;39.40;;;;;;5032014;28;20206;-67
2023/12/17 12:05:25;;;;;;;6.30;5.83;;;25.10;38.10;;;;;;5032240;28;20171;-67
2023/12/17 12:07:54;;;;;;;6.77;6.30;;;25.60;37.10;;;;;;5031920;28;20236;-67
2023/12/17 12:10:21;;;;;;;6.93;6.33;;;26.20;36.30;;;;;;5032076;28;20178;-67
2023/12/17 12:13:02;;;;;;;6.47;5.87;;;26.50;35.30;;;;;;5032345;28;20475;-67
2023/12/17 12:15:28;;;;;;;6.60;6.10;;;26.50;35.40;;;;;;5031603;28;20424;-67
2023/12/17 12:17:53;;;;;;;6.90;6.30;;;27.00;35.10;;;;;;5031300;28;20419;-67
2023/12/17 12:20:34;;;;;;;7.97;7.40;;;27.00;34.40;;;;;;5031445;28;20664;-67
2023/12/17 12:23:00;;;;;;;6.83;6.23;;;27.40;32.30;;;;;;5034840;28;20608;-67
2023/12/17 12:25:26;;;;;;;6.53;6.07;;;27.70;32.40;;;;;;5035246;28;20471;-68
2023/12/17 12:27:51;;;;;;;7.80;7.30;;;27.70;32.10;;;;;;5035010;28;20197;-65
2023/12/17 12:30:25;;;;;;;8.23;7.60;;;28.40;31.80;;;;;;5035211;28;20831;-65
2023/12/17 12:32:50;;;;;;;8.60;8.10;;;27.30;32.00;;;;;;5035229;28;20659;-67
2023/12/17 12:35:29;;;;;;;8.40;7.80;;;26.90;32.40;;;;;;5035205;28;20431;-68